Time;durP1;ratioP1;P1;durP2;ratioP2;P2;SDS_P1;SDS_P2;PMS_P1;PMS_P2;Temp;Humidity;BMP_temperature;BMP_pressure;BME280_temperature;BME280_humidity;BME280_pressure;Samples;Min_cycle;Max_cycle;Signal;HPM_P1;HPM_P2
2023/01/22 00:01:42;;;;;;;28.17;13.40;;;;;;;;;;5064967;28;20303;-60
2023/01/22 00:04:08;;;;;;;26.00;14.53;;;;;;;;;;5050408;28;20887;-61
2023/01/22 00:06:34;;;;;;;27.53;14.80;;;;;;;;;;5049415;28;20774;-61
2023/01/22 00:09:02;;;;;;;26.10;13.30;;;;;;;;;;5050362;28;20712;-61
2023/01/22 00:11:29;;;;;;;31.83;14.17;;;;;;;;;;5050439;28;20665;-61
2023/01/22 00:13:55;;;;;;;24.67;12.97;;;;;;;;;;5050300;28;20292;-61
2023/01/22 00:16:21;;;;;;;28.40;15.77;;;;;;;;;;5048887;28;20319;-61
2023/01/22 00:18:47;;;;;;;27.90;13.27;;;;;;;;;;5049951;28;20276;-61
2023/01/22 00:21:13;;;;;;;30.03;13.90;;;;;;;;;;5050037;28;20314;-61
2023/01/22 00:23:39;;;;;;;30.33;14.40;;;;;;;;;;5050234;28;20279;-62
2023/01/22 00:26:09;;;;;;;27.57;12.30;;;;;;;;;;5050038;28;20288;-61
2023/01/22 00:28:36;;;;;;;27.43;13.57;;;;;;;;;;5050071;28;20291;-60
2023/01/22 00:31:03;;;;;;;21.33;10.97;;;;;;;;;;5063022;28;20831;-61
2023/01/22 00:33:29;;;;;;;23.87;11.63;;;;;;;;;;5068586;28;20370;-61
2023/01/22 00:35:56;;;;;;;24.87;12.60;;;;;;;;;;5069981;28;20338;-61
2023/01/22 00:38:22;;;;;;;27.50;12.27;;;;;;;;;;5069479;28;20279;-61
2023/01/22 00:40:48;;;;;;;20.27;10.87;;;;;;;;;;5069490;28;20283;-61
2023/01/22 00:43:14;;;;;;;29.50;11.97;;;;;;;;;;5069857;28;20275;-60
2023/01/22 00:45:40;;;;;;;25.10;12.70;;;;;;;;;;5069194;28;20781;-61
2023/01/22 00:48:06;;;;;;;24.10;11.03;;;;;;;;;;5069310;28;20376;-61
2023/01/22 00:50:32;;;;;;;23.57;12.40;;;;;;;;;;5068566;28;20436;-61
2023/01/22 00:52:59;;;;;;;25.80;12.77;;;;;;;;;;5069034;28;20286;-60
2023/01/22 00:55:25;;;;;;;27.50;13.00;;;;;;;;;;5069666;28;20303;-61
2023/01/22 00:57:51;;;;;;;24.00;11.10;;;;;;;;;;5069376;28;20416;-61
2023/01/22 01:00:18;;;;;;;23.30;11.53;;;;;;;;;;5069203;28;20302;-60
2023/01/22 01:05:29;;;;;;;27.33;12.33;;;;;;;;;;5068142;28;20298;-60
2023/01/22 01:07:55;;;;;;;22.13;10.90;;;;;;;;;;5067448;28;20650;-60
2023/01/22 01:10:21;;;;;;;27.40;12.13;;;;;;;;;;5069224;28;20274;-60
2023/01/22 01:12:47;;;;;;;25.83;11.13;;;;;;;;;;5069185;28;20286;-60
2023/01/22 01:15:13;;;;;;;27.53;11.63;;;;;;;;;;5069090;28;20298;-60
2023/01/22 01:17:39;;;;;;;26.90;11.70;;;;;;;;;;5067816;28;20486;-60
2023/01/22 01:20:06;;;;;;;21.53;9.83;;;;;;;;;;5068763;28;20283;-61
2023/01/22 01:22:32;;;;;;;25.33;11.67;;;;;;;;;;5069215;28;20295;-61
2023/01/22 01:24:58;;;;;;;25.20;11.73;;;;;;;;;;5068928;28;20283;-61
2023/01/22 01:27:25;;;;;;;23.67;12.20;;;;;;;;;;5068942;28;21128;-61
2023/01/22 01:29:51;;;;;;;24.83;11.43;;;;;;;;;;5067582;28;20294;-61
2023/01/22 01:32:17;;;;;;;29.73;12.13;;;;;;;;;;5068749;28;20275;-61
2023/01/22 01:34:44;;;;;;;24.67;11.87;;;;;;;;;;5068872;28;20415;-61
2023/01/22 01:37:10;;;;;;;27.30;13.10;;;;;;;;;;5058298;28;20501;-61
2023/01/22 01:39:36;;;;;;;30.60;12.83;;;;;;;;;;5048517;28;20774;-61
2023/01/22 01:42:02;;;;;;;24.90;13.17;;;;;;;;;;5064851;28;20309;-60
2023/01/22 01:44:30;;;;;;;29.63;13.63;;;;;;;;;;5068406;28;20315;-61
2023/01/22 01:47:07;;;;;;;27.13;12.53;;;;;;;;;;5068377;28;20864;-60
2023/01/22 01:49:48;;;;;;;27.37;12.67;;;;;;;;;;5068301;28;20322;-60
2023/01/22 01:52:14;;;;;;;29.40;12.37;;;;;;;;;;5068665;28;20328;-61
2023/01/22 01:54:41;;;;;;;30.87;13.80;;;;;;;;;;5068565;28;20789;-61
2023/01/22 01:57:09;;;;;;;24.03;12.20;;;;;;;;;;5067578;28;20307;-61
2023/01/22 01:59:36;;;;;;;29.07;13.73;;;;;;;;;;5068305;28;21388;-60
2023/01/22 02:02:02;;;;;;;25.57;12.13;;;;;;;;;;5068264;28;20325;-60
2023/01/22 02:04:28;;;;;;;31.60;13.10;;;;;;;;;;5067515;28;20366;-61
2023/01/22 02:06:54;;;;;;;29.70;13.70;;;;;;;;;;5066911;28;20337;-61
2023/01/22 02:09:20;;;;;;;31.37;14.47;;;;;;;;;;5068323;28;20286;-61
2023/01/22 02:11:49;;;;;;;34.10;14.30;;;;;;;;;;5068209;28;20275;-61
2023/01/22 02:14:17;;;;;;;28.70;15.27;;;;;;;;;;5068524;28;20286;-61
2023/01/22 02:16:43;;;;;;;35.07;14.73;;;;;;;;;;5062404;28;20315;-61
2023/01/22 02:19:10;;;;;;;25.90;13.60;;;;;;;;;;5056570;28;20450;-61
2023/01/22 02:21:37;;;;;;;29.67;14.03;;;;;;;;;;5068208;28;20324;-61
2023/01/22 02:24:09;;;;;;;36.57;15.63;;;;;;;;;;5067223;28;20302;-61
2023/01/22 02:26:35;;;;;;;35.03;15.23;;;;;;;;;;5065506;28;20294;-60
2023/01/22 02:29:02;;;;;;;32.00;13.20;;;;;;;;;;5050237;28;20624;-61
2023/01/22 02:31:28;;;;;;;34.73;14.77;;;;;;;;;;5052592;28;20374;-60
2023/01/22 02:33:54;;;;;;;38.63;15.40;;;;;;;;;;5051893;28;20288;-61
2023/01/22 02:36:20;;;;;;;34.90;15.67;;;;;;;;;;5064140;28;20350;-61
2023/01/22 02:38:46;;;;;;;32.43;14.67;;;;;;;;;;5053845;28;20315;-60
2023/01/22 02:41:13;;;;;;;35.20;16.53;;;;;;;;;;5051159;28;20405;-61
2023/01/22 02:43:40;;;;;;;33.83;15.93;;;;;;;;;;5051032;28;20280;-60
2023/01/22 02:46:06;;;;;;;35.93;15.07;;;;;;;;;;5052408;28;20291;-61
2023/01/22 02:48:32;;;;;;;34.03;15.60;;;;;;;;;;5063758;28;20346;-61
2023/01/22 02:50:58;;;;;;;33.83;16.07;;;;;;;;;;5062774;28;20303;-61
2023/01/22 02:53:24;;;;;;;36.87;15.47;;;;;;;;;;5052026;28;20325;-61
2023/01/22 02:55:50;;;;;;;34.53;15.27;;;;;;;;;;5051778;28;20311;-61
2023/01/22 02:58:16;;;;;;;39.90;17.03;;;;;;;;;;5050668;28;20287;-61
2023/01/22 03:00:42;;;;;;;35.23;16.00;;;;;;;;;;5051809;28;20053;-61
2023/01/22 03:03:14;;;;;;;32.83;15.90;;;;;;;;;;5050778;28;20378;-60
2023/01/22 03:05:42;;;;;;;39.50;14.70;;;;;;;;;;5050450;28;20283;-60
2023/01/22 03:08:08;;;;;;;29.73;13.93;;;;;;;;;;5051231;28;20299;-61
2023/01/22 03:10:34;;;;;;;32.40;14.40;;;;;;;;;;5051918;28;20645;-60
2023/01/22 03:21:16;;;;;;;32.53;13.23;;;;;;;;;;5051862;28;20283;-61
2023/01/22 03:23:45;;;;;;;29.23;13.40;;;;;;;;;;5051428;28;20276;-61
2023/01/22 03:26:12;;;;;;;30.23;14.03;;;;;;;;;;5050151;28;20279;-61
2023/01/22 03:28:39;;;;;;;30.93;14.93;;;;;;;;;;5049479;28;20334;-61
2023/01/22 03:31:05;;;;;;;26.83;13.17;;;;;;;;;;5050979;28;20364;-61
2023/01/22 03:33:31;;;;;;;35.90;14.70;;;;;;;;;;5051265;28;20685;-61
2023/01/22 03:36:01;;;;;;;34.90;14.93;;;;;;;;;;5049637;28;20393;-61
2023/01/22 03:38:27;;;;;;;28.23;13.20;;;;;;;;;;5050516;28;20377;-61
2023/01/22 03:41:00;;;;;;;27.90;13.60;;;;;;;;;;5049884;28;20282;-60
2023/01/22 03:43:26;;;;;;;28.20;13.70;;;;;;;;;;5050642;28;20286;-60
2023/01/22 03:45:52;;;;;;;25.93;13.87;;;;;;;;;;5049491;28;20358;-61
2023/01/22 03:48:18;;;;;;;27.47;14.27;;;;;;;;;;5060281;28;20063;-61
2023/01/22 03:50:44;;;;;;;32.20;14.37;;;;;;;;;;5070611;28;20048;-60
2023/01/22 03:53:10;;;;;;;35.03;15.33;;;;;;;;;;5070312;28;20047;-60
2023/01/22 03:55:36;;;;;;;29.47;15.53;;;;;;;;;;5070714;28;20053;-61
2023/01/22 03:58:02;;;;;;;26.60;14.03;;;;;;;;;;5069277;28;20460;-60
2023/01/22 04:00:28;;;;;;;27.50;13.67;;;;;;;;;;5058519;28;20043;-61
2023/01/22 04:02:54;;;;;;;27.50;13.80;;;;;;;;;;5050419;28;20057;-61
2023/01/22 04:05:20;;;;;;;27.40;14.33;;;;;;;;;;5049320;28;20337;-61
2023/01/22 04:07:48;;;;;;;29.60;13.27;;;;;;;;;;5054883;28;20304;-61
2023/01/22 04:10:14;;;;;;;22.17;11.30;;;;;;;;;;5060383;28;20782;-60
2023/01/22 04:12:40;;;;;;;22.30;12.80;;;;;;;;;;5050637;28;20279;-60
2023/01/22 04:15:06;;;;;;;21.13;11.93;;;;;;;;;;5049869;28;20053;-60
2023/01/22 04:17:32;;;;;;;23.40;12.37;;;;;;;;;;5049769;28;20323;-61
2023/01/22 04:19:58;;;;;;;26.10;13.40;;;;;;;;;;5049777;28;20350;-60
2023/01/22 04:22:24;;;;;;;27.83;14.13;;;;;;;;;;5050408;28;20045;-60
2023/01/22 04:24:50;;;;;;;21.57;12.23;;;;;;;;;;5050365;28;20048;-61
2023/01/22 04:27:16;;;;;;;24.17;11.93;;;;;;;;;;5050995;28;20473;-61
2023/01/22 04:29:42;;;;;;;26.00;13.47;;;;;;;;;;5070018;28;20090;-61
2023/01/22 04:32:08;;;;;;;27.13;13.33;;;;;;;;;;5069740;28;20365;-60
2023/01/22 04:34:34;;;;;;;21.87;12.80;;;;;;;;;;5069661;28;20276;-60
2023/01/22 04:37:00;;;;;;;23.07;13.33;;;;;;;;;;5069712;28;20310;-60
2023/01/22 04:39:26;;;;;;;27.93;12.00;;;;;;;;;;5052509;28;20076;-60
2023/01/22 04:41:52;;;;;;;23.67;11.60;;;;;;;;;;5069675;28;20039;-60
2023/01/22 04:44:18;;;;;;;23.60;12.20;;;;;;;;;;5070255;28;20040;-60
2023/01/22 04:46:44;;;;;;;20.10;11.23;;;;;;;;;;5069512;28;20098;-60
2023/01/22 04:49:10;;;;;;;21.37;10.47;;;;;;;;;;5068389;28;20056;-60
2023/01/22 04:51:36;;;;;;;19.27;10.30;;;;;;;;;;5069444;28;20058;-60
2023/01/22 04:54:02;;;;;;;17.50;9.97;;;;;;;;;;5069104;28;20282;-60
2023/01/22 04:56:29;;;;;;;23.40;11.27;;;;;;;;;;5069192;28;20080;-60
2023/01/22 04:58:55;;;;;;;20.53;10.13;;;;;;;;;;5054303;28;20772;-60
2023/01/22 05:01:21;;;;;;;20.10;10.87;;;;;;;;;;5049113;28;20048;-61
2023/01/22 05:03:47;;;;;;;22.27;11.53;;;;;;;;;;5049284;28;20044;-60
2023/01/22 05:06:13;;;;;;;21.90;11.17;;;;;;;;;;5058921;28;20499;-60
2023/01/22 05:08:39;;;;;;;23.87;11.50;;;;;;;;;;5068410;28;20040;-60
2023/01/22 05:11:05;;;;;;;22.13;10.83;;;;;;;;;;5069317;28;20293;-60
2023/01/22 05:13:31;;;;;;;22.17;11.47;;;;;;;;;;5069260;28;20135;-60
2023/01/22 05:15:57;;;;;;;21.53;11.10;;;;;;;;;;5068753;28;20743;-60
2023/01/22 05:18:23;;;;;;;19.07;11.33;;;;;;;;;;5059171;28;20040;-60
2023/01/22 05:20:49;;;;;;;23.67;10.83;;;;;;;;;;5049084;28;20371;-60
2023/01/22 05:23:15;;;;;;;20.67;10.57;;;;;;;;;;5049132;28;20037;-60
2023/01/22 05:25:46;;;;;;;18.30;10.73;;;;;;;;;;5049016;28;20041;-60
2023/01/22 05:28:12;;;;;;;19.27;10.17;;;;;;;;;;5053818;28;20791;-61
2023/01/22 05:30:38;;;;;;;21.93;11.53;;;;;;;;;;5069048;28;20283;-60
2023/01/22 05:33:04;;;;;;;18.27;10.40;;;;;;;;;;5068698;28;20079;-60
2023/01/22 05:35:30;;;;;;;25.77;11.67;;;;;;;;;;5068954;28;20040;-60
2023/01/22 05:37:56;;;;;;;22.00;11.63;;;;;;;;;;5059181;28;20095;-60
2023/01/22 05:40:22;;;;;;;22.20;10.30;;;;;;;;;;5054367;28;20392;-60
2023/01/22 05:42:48;;;;;;;21.77;10.43;;;;;;;;;;5058638;28;20348;-60
2023/01/22 05:45:14;;;;;;;18.80;11.27;;;;;;;;;;5047471;28;20096;-60
2023/01/22 05:47:40;;;;;;;23.67;11.27;;;;;;;;;;5053199;28;20353;-60
2023/01/22 05:50:06;;;;;;;19.73;10.87;;;;;;;;;;5068516;28;20801;-61
2023/01/22 05:52:32;;;;;;;20.00;10.57;;;;;;;;;;5068154;28;20310;-60
2023/01/22 05:55:00;;;;;;;16.87;10.40;;;;;;;;;;5068454;28;20274;-60
2023/01/22 05:57:28;;;;;;;21.17;11.50;;;;;;;;;;5063979;28;20314;-60
2023/01/22 05:59:54;;;;;;;20.10;11.30;;;;;;;;;;5048285;28;20660;-60
2023/01/22 06:02:20;;;;;;;21.93;12.00;;;;;;;;;;5048155;28;20316;-60
2023/01/22 06:04:46;;;;;;;20.63;11.57;;;;;;;;;;5047896;28;20359;-61
2023/01/22 06:07:12;;;;;;;16.37;10.07;;;;;;;;;;5047767;28;20287;-60
2023/01/22 06:09:38;;;;;;;25.73;11.97;;;;;;;;;;5048365;28;20800;-60
2023/01/22 06:12:04;;;;;;;20.80;11.03;;;;;;;;;;5048321;28;20294;-60
2023/01/22 06:14:31;;;;;;;19.70;11.07;;;;;;;;;;5048295;28;20322;-60
2023/01/22 06:16:57;;;;;;;22.80;11.37;;;;;;;;;;5047773;28;20316;-60
2023/01/22 06:19:23;;;;;;;30.00;12.97;;;;;;;;;;5067797;28;20325;-60
2023/01/22 06:21:49;;;;;;;20.63;11.27;;;;;;;;;;5068379;28;20687;-60
2023/01/22 06:24:15;;;;;;;23.67;11.13;;;;;;;;;;5068200;28;21014;-60
2023/01/22 06:26:41;;;;;;;18.03;10.80;;;;;;;;;;5067897;28;20318;-61
2023/01/22 06:29:07;;;;;;;19.40;10.43;;;;;;;;;;5056906;28;20314;-61
2023/01/22 06:31:33;;;;;;;16.90;10.60;;;;;;;;;;5048243;28;20291;-60
2023/01/22 06:33:59;;;;;;;20.80;10.63;;;;;;;;;;5047683;28;20287;-60
2023/01/22 06:36:25;;;;;;;19.00;10.53;;;;;;;;;;5048250;28;20356;-61
2023/01/22 06:38:51;;;;;;;18.83;11.20;;;;;;;;;;5047864;28;20331;-60
2023/01/22 06:41:17;;;;;;;17.83;9.77;;;;;;;;;;5047988;28;20306;-60
2023/01/22 06:43:43;;;;;;;18.63;10.37;;;;;;;;;;5047940;28;20287;-61
2023/01/22 06:46:09;;;;;;;20.63;10.87;;;;;;;;;;5048244;28;20284;-61
2023/01/22 06:48:35;;;;;;;19.87;10.47;;;;;;;;;;5045194;28;20299;-61
2023/01/22 06:51:01;;;;;;;21.37;10.40;;;;;;;;;;5063541;28;20356;-61
2023/01/22 06:53:28;;;;;;;18.93;11.23;;;;;;;;;;5047786;28;20295;-61
2023/01/22 06:55:54;;;;;;;22.10;12.33;;;;;;;;;;5048283;28;20343;-61
2023/01/22 06:58:20;;;;;;;16.47;10.03;;;;;;;;;;5048345;28;20667;-61
2023/01/22 07:00:46;;;;;;;15.60;10.30;;;;;;;;;;5048198;28;20296;-61
2023/01/22 07:03:12;;;;;;;19.33;10.40;;;;;;;;;;5047603;28;20310;-61
2023/01/22 07:05:38;;;;;;;17.17;10.53;;;;;;;;;;5048217;28;20288;-60
2023/01/22 07:08:04;;;;;;;17.80;10.23;;;;;;;;;;5048138;28;20291;-61
2023/01/22 07:10:30;;;;;;;21.33;10.10;;;;;;;;;;5048063;28;20366;-60
2023/01/22 07:12:57;;;;;;;19.23;10.13;;;;;;;;;;5050235;28;20302;-62
2023/01/22 07:15:24;;;;;;;16.97;10.07;;;;;;;;;;5070592;28;20377;-62
2023/01/22 07:17:51;;;;;;;16.77;9.97;;;;;;;;;;5071924;28;20290;-61
2023/01/22 07:20:17;;;;;;;17.77;10.03;;;;;;;;;;5071524;28;20287;-60
2023/01/22 07:22:43;;;;;;;18.80;10.57;;;;;;;;;;5055384;28;20647;-61
2023/01/22 07:25:09;;;;;;;17.97;9.67;;;;;;;;;;5051696;28;20689;-59
2023/01/22 07:27:37;;;;;;;18.20;9.93;;;;;;;;;;5051207;28;20685;-62
2023/01/22 07:30:03;;;;;;;19.53;9.70;;;;;;;;;;5051609;28;20388;-61
2023/01/22 07:32:29;;;;;;;18.77;10.27;;;;;;;;;;5050300;28;20776;-61
2023/01/22 07:34:56;;;;;;;19.10;9.63;;;;;;;;;;5050915;28;20712;-61
2023/01/22 07:37:22;;;;;;;17.13;9.07;;;;;;;;;;5050866;28;20307;-61
2023/01/22 07:39:48;;;;;;;17.83;10.17;;;;;;;;;;5051306;28;20375;-60
2023/01/22 07:42:14;;;;;;;18.57;11.27;;;;;;;;;;5050893;28;20295;-61
2023/01/22 07:44:40;;;;;;;18.40;10.03;;;;;;;;;;5050612;28;20292;-61
2023/01/22 07:47:06;;;;;;;17.13;9.93;;;;;;;;;;5050523;28;20299;-61
2023/01/22 07:49:32;;;;;;;27.23;11.13;;;;;;;;;;5051070;28;20698;-61
2023/01/22 07:51:58;;;;;;;16.80;10.20;;;;;;;;;;5050594;28;20291;-61
2023/01/22 07:54:24;;;;;;;19.83;10.60;;;;;;;;;;5064546;28;20295;-61
2023/01/22 07:56:50;;;;;;;18.00;10.83;;;;;;;;;;5070079;28;20311;-60
2023/01/22 07:59:16;;;;;;;18.57;10.20;;;;;;;;;;5069206;28;20290;-60
2023/01/22 08:01:42;;;;;;;19.00;10.60;;;;;;;;;;5070625;28;20290;-61
2023/01/22 08:04:08;;;;;;;17.03;10.30;;;;;;;;;;5068508;28;20307;-61
2023/01/22 08:06:35;;;;;;;19.70;10.80;;;;;;;;;;5070753;28;20317;-61
2023/01/22 08:09:01;;;;;;;19.50;11.60;;;;;;;;;;5056440;28;20358;-61
2023/01/22 08:11:27;;;;;;;19.73;10.70;;;;;;;;;;5050355;28;20041;-61
2023/01/22 08:13:53;;;;;;;17.57;9.87;;;;;;;;;;5057876;28;20315;-61
2023/01/22 08:16:20;;;;;;;16.83;9.97;;;;;;;;;;5052881;28;20365;-61
2023/01/22 08:18:46;;;;;;;23.23;11.37;;;;;;;;;;5050287;28;20345;-61
2023/01/22 08:21:12;;;;;;;25.10;10.50;;;;;;;;;;5049925;28;20298;-61
2023/01/22 08:23:38;;;;;;;18.97;10.63;;;;;;;;;;5056712;28;20295;-61
2023/01/22 08:26:04;;;;;;;18.50;10.40;;;;;;;;;;5069633;28;20059;-61
2023/01/22 08:28:31;;;;;;;18.67;11.00;;;;;;;;;;5069680;28;20278;-61
2023/01/22 08:30:58;;;;;;;20.60;10.77;;;;;;;;;;5069652;28;20308;-62
2023/01/22 08:33:24;;;;;;;18.40;10.70;;;;;;;;;;5063582;28;20314;-61
2023/01/22 08:35:50;;;;;;;17.23;10.87;;;;;;;;;;5049398;28;20722;-61
2023/01/22 08:38:16;;;;;;;20.10;9.77;;;;;;;;;;5049629;28;20371;-61
2023/01/22 08:40:42;;;;;;;18.57;10.87;;;;;;;;;;5049948;28;21326;-62
2023/01/22 08:43:08;;;;;;;18.83;10.87;;;;;;;;;;5055535;28;20307;-61
2023/01/22 08:45:34;;;;;;;20.27;11.83;;;;;;;;;;5055051;28;20313;-61
2023/01/22 08:48:00;;;;;;;16.90;9.73;;;;;;;;;;5057932;28;20302;-61
2023/01/22 08:50:27;;;;;;;17.30;11.50;;;;;;;;;;5057743;28;20287;-61
2023/01/22 08:52:56;;;;;;;18.00;9.90;;;;;;;;;;5056368;28;20305;-61
2023/01/22 08:55:22;;;;;;;18.63;11.77;;;;;;;;;;5055723;28;20616;-61
2023/01/22 08:57:57;;;;;;;15.07;9.70;;;;;;;;;;5060004;28;20309;-61
2023/01/22 09:00:24;;;;;;;20.13;10.33;;;;;;;;;;5062021;28;20063;-62
2023/01/22 09:02:50;;;;;;;17.93;10.50;;;;;;;;;;5056848;28;20288;-61
2023/01/22 09:05:16;;;;;;;19.53;10.47;;;;;;;;;;5057927;28;20298;-62
2023/01/22 09:07:42;;;;;;;15.90;10.43;;;;;;;;;;5054885;28;20306;-62
2023/01/22 09:10:11;;;;;;;16.47;10.47;;;;;;;;;;5053662;28;20298;-61
2023/01/22 09:12:37;;;;;;;15.07;9.77;;;;;;;;;;5054111;28;20437;-61
2023/01/22 09:15:03;;;;;;;20.60;12.13;;;;;;;;;;5058517;28;20284;-61
2023/01/22 09:17:29;;;;;;;18.53;11.17;;;;;;;;;;5058613;28;20327;-60
2023/01/22 09:19:55;;;;;;;15.43;10.53;;;;;;;;;;5054339;28;20736;-62
2023/01/22 09:22:21;;;;;;;16.90;10.40;;;;;;;;;;5057550;28;20311;-61
2023/01/22 09:24:47;;;;;;;16.23;10.03;;;;;;;;;;5057148;28;20290;-61
2023/01/22 09:27:13;;;;;;;16.77;9.47;;;;;;;;;;5058294;28;20282;-61
2023/01/22 09:29:39;;;;;;;20.67;10.43;;;;;;;;;;5056549;28;20458;-62
2023/01/22 09:32:06;;;;;;;15.93;10.37;;;;;;;;;;5055722;28;20896;-61
2023/01/22 09:34:32;;;;;;;15.27;10.27;;;;;;;;;;5050603;28;20681;-61
2023/01/22 09:37:01;;;;;;;20.73;9.90;;;;;;;;;;5048261;28;20391;-61
2023/01/22 09:39:27;;;;;;;16.87;10.40;;;;;;;;;;5050353;28;20446;-62
2023/01/22 09:41:55;;;;;;;22.73;10.87;;;;;;;;;;5068416;28;20294;-61
2023/01/22 09:44:21;;;;;;;17.33;10.53;;;;;;;;;;5060959;28;20283;-61
2023/01/22 09:46:49;;;;;;;18.53;9.20;;;;;;;;;;5048392;28;20306;-62
2023/01/22 09:49:16;;;;;;;14.37;10.00;;;;;;;;;;5048075;28;20056;-61
2023/01/22 09:51:56;;;;;;;17.40;9.93;;;;;;;;;;5048172;28;20103;-61
2023/01/22 09:54:22;;;;;;;15.30;9.23;;;;;;;;;;5063383;28;20122;-61
2023/01/22 09:56:50;;;;;;;21.93;10.00;;;;;;;;;;5056920;28;20135;-61
2023/01/22 09:59:26;;;;;;;15.73;8.83;;;;;;;;;;5059962;28;20279;-61
2023/01/22 10:01:55;;;;;;;15.93;10.13;;;;;;;;;;5056884;28;20790;-61
2023/01/22 10:04:26;;;;;;;16.10;9.23;;;;;;;;;;5059063;28;20290;-61
2023/01/22 10:06:53;;;;;;;14.60;10.03;;;;;;;;;;5058826;28;20611;-61
2023/01/22 10:09:20;;;;;;;14.37;9.40;;;;;;;;;;5056477;28;20279;-62
2023/01/22 10:11:49;;;;;;;18.23;10.17;;;;;;;;;;5057480;28;20094;-61
2023/01/22 10:14:16;;;;;;;16.77;9.70;;;;;;;;;;5057869;28;20045;-62
2023/01/22 10:16:42;;;;;;;13.87;9.70;;;;;;;;;;5056457;28;20045;-61
2023/01/22 10:19:17;;;;;;;13.83;9.80;;;;;;;;;;5057605;28;20409;-62
2023/01/22 10:21:48;;;;;;;17.27;9.87;;;;;;;;;;5056829;28;20295;-61
2023/01/22 10:24:14;;;;;;;14.77;9.37;;;;;;;;;;5057007;28;20044;-62
2023/01/22 10:26:44;;;;;;;20.60;10.90;;;;;;;;;;5055580;28;20041;-61
2023/01/22 10:29:13;;;;;;;16.37;9.60;;;;;;;;;;5056557;28;20048;-61
2023/01/22 10:31:45;;;;;;;13.77;9.33;;;;;;;;;;5058283;28;20320;-61
2023/01/22 10:34:15;;;;;;;12.37;9.27;;;;;;;;;;5056939;28;20115;-61
2023/01/22 10:36:48;;;;;;;15.63;8.60;;;;;;;;;;5055410;28;20072;-61
2023/01/22 10:39:15;;;;;;;12.93;9.20;;;;;;;;;;5056263;28;20495;-61
2023/01/22 10:41:41;;;;;;;16.80;9.30;;;;;;;;;;5057995;28;20369;-61
2023/01/22 10:44:18;;;;;;;13.20;8.67;;;;;;;;;;5056643;28;20048;-61
2023/01/22 10:46:48;;;;;;;10.13;7.90;;;;;;;;;;5054523;28;20487;-61
2023/01/22 10:49:21;;;;;;;10.70;8.30;;;;;;;;;;5056143;28;20114;-61
2023/01/22 10:51:55;;;;;;;12.20;8.25;;;;;;;;;;5059854;28;20053;-61
2023/01/22 10:54:30;;;;;;;12.32;9.23;;;;;;;;;;5061313;28;20041;-61
2023/01/22 10:57:14;;;;;;;13.60;7.37;;;;;;;;;;5061373;28;20048;-61
2023/01/22 10:59:40;;;;;;;11.73;6.83;;;;;;;;;;5070363;28;20414;-61
2023/01/22 11:02:17;;;;;;;12.13;7.07;;;;;;;;;;5063255;28;20056;-61
2023/01/22 11:04:43;;;;;;;10.47;7.13;;;;;;;;;;5056631;28;20075;-61
2023/01/22 11:07:13;;;;;;;9.63;7.53;;;;;;;;;;5050934;28;20045;-60
2023/01/22 11:09:54;;;;;;;9.97;7.23;;;;;;;;;;5050904;28;20049;-60
2023/01/22 11:12:25;;;;;;;11.90;7.50;;;;;;;;;;5050854;28;20044;-61
2023/01/22 11:15:01;;;;;;;12.30;8.03;;;;;;;;;;5050269;28;20049;-60
2023/01/22 11:17:31;;;;;;;10.00;7.17;;;;;;;;;;5051466;28;20045;-61
2023/01/22 11:20:00;;;;;;;10.73;8.20;;;;;;;;;;5053944;28;20044;-61
2023/01/22 11:22:32;;;;;;;13.33;7.80;;;;;;;;;;5059055;28;20132;-61
2023/01/22 11:24:58;;;;;;;14.87;7.73;;;;;;;;;;5051480;28;20107;-61
2023/01/22 11:27:30;;;;;;;11.13;7.90;;;;;;;;;;5050714;28;20132;-60
2023/01/22 11:29:56;;;;;;;11.03;7.80;;;;;;;;;;5050935;28;20041;-60
2023/01/22 11:32:49;;;;;;;10.87;7.93;;;;;;;;;;5050913;28;20073;-60
2023/01/22 11:35:29;;;;;;;13.10;7.90;;;;;;;;;;5062102;28;20195;-61
2023/01/22 11:38:15;;;;;;;12.90;9.13;;;;;;;;;;5070694;28;20044;-60
2023/01/22 11:41:00;;;;;;;10.77;7.77;;;;;;;;;;5060501;28;20107;-60
2023/01/22 11:43:39;;;;;;;13.77;8.17;;;;;;;;;;5050673;28;20422;-60
2023/01/22 11:46:28;;;;;;;10.87;7.67;;;;;;;;;;5050604;28;20174;-60
2023/01/22 11:49:04;;;;;;;13.93;8.40;;;;;;;;;;5050464;28;20049;-61
2023/01/22 11:51:37;;;;;;;10.40;8.00;;;;;;;;;;5058327;28;20115;-60
2023/01/22 11:54:16;;;;;;;13.30;7.80;;;;;;;;;;5070879;28;20189;-61
2023/01/22 11:56:51;;;;;;;9.37;7.37;;;;;;;;;;5070328;28;20048;-61
2023/01/22 11:59:22;;;;;;;15.60;9.53;;;;;;;;;;5070390;28;20055;-61
2023/01/22 12:02:07;;;;;;;10.77;7.47;;;;;;;;;;5069474;28;20048;-61
2023/01/22 12:04:36;;;;;;;13.00;7.90;;;;;;;;;;5058294;28;20056;-60
2023/01/22 12:07:05;;;;;;;11.27;7.57;;;;;;;;;;5061896;28;20044;-61
2023/01/22 12:09:42;;;;;;;14.33;8.70;;;;;;;;;;5066474;28;20049;-61
2023/01/22 12:12:11;;;;;;;10.10;7.20;;;;;;;;;;5057791;28;20053;-61
2023/01/22 12:14:56;;;;;;;10.93;8.00;;;;;;;;;;5050409;28;20048;-61
2023/01/22 12:17:33;;;;;;;12.67;9.70;;;;;;;;;;5056290;28;20047;-60
2023/01/22 12:20:07;;;;;;;12.80;8.00;;;;;;;;;;5070284;28;20410;-60
2023/01/22 12:22:36;;;;;;;10.50;7.87;;;;;;;;;;5070406;28;20052;-60
2023/01/22 12:25:21;;;;;;;11.90;8.13;;;;;;;;;;5056769;28;20090;-61
2023/01/22 12:27:53;;;;;;;12.27;8.73;;;;;;;;;;5068599;28;20041;-60
2023/01/22 12:30:27;;;;;;;13.87;8.00;;;;;;;;;;5070010;28;20395;-60
2023/01/22 12:32:56;;;;;;;11.53;7.87;;;;;;;;;;5068458;28;20052;-60
2023/01/22 12:35:24;;;;;;;11.30;7.20;;;;;;;;;;5069552;28;20494;-61
2023/01/22 12:37:53;;;;;;;10.50;7.23;;;;;;;;;;5069799;28;20053;-61
2023/01/22 12:40:25;;;;;;;10.43;7.43;;;;;;;;;;5063211;28;20036;-61
2023/01/22 12:42:56;;;;;;;14.43;8.73;;;;;;;;;;5054845;28;20041;-61
2023/01/22 12:45:24;;;;;;;11.67;7.27;;;;;;;;;;5062430;28;20131;-61
2023/01/22 12:48:09;;;;;;;10.90;7.87;;;;;;;;;;5063596;28;20433;-61
2023/01/22 12:50:36;;;;;;;10.87;8.10;;;;;;;;;;5055856;28;20060;-61
2023/01/22 12:53:02;;;;;;;16.60;7.63;;;;;;;;;;5053652;28;20045;-61
2023/01/22 12:55:30;;;;;;;11.47;7.53;;;;;;;;;;5054745;28;20033;-61
2023/01/22 12:57:56;;;;;;;11.40;7.33;;;;;;;;;;5066399;28;20547;-61
2023/01/22 13:00:30;;;;;;;13.23;8.53;;;;;;;;;;5065836;28;20059;-61
2023/01/22 13:02:56;;;;;;;;;;;;;;;;;;5068210;28;20048;-61
2023/01/22 13:05:25;;;;;;;10.90;7.53;;;;;;;;;;5067460;28;19927;-61
2023/01/22 13:08:21;;;;;;;10.97;7.17;;;;;;;;;;5066401;28;20079;-60
2023/01/22 13:10:52;;;;;;;12.33;7.23;;;;;;;;;;5062918;28;20046;-61
2023/01/22 13:13:22;;;;;;;11.93;7.07;;;;;;;;;;5068555;28;20037;-61
2023/01/22 13:15:53;;;;;;;12.63;8.10;;;;;;;;;;5067551;28;20078;-60
2023/01/22 13:18:20;;;;;;;12.20;7.77;;;;;;;;;;5066717;28;20048;-61
2023/01/22 13:21:12;;;;;;;16.37;9.70;;;;;;;;;;5066645;28;20045;-62
2023/01/22 13:23:43;;;;;;;17.17;8.10;;;;;;;;;;5065042;28;20060;-61
2023/01/22 13:26:16;;;;;;;13.30;8.00;;;;;;;;;;5066329;28;20047;-61
2023/01/22 13:28:47;;;;;;;15.25;8.65;;;;;;;;;;5064887;28;20503;-61
2023/01/22 13:31:14;;;;;;;13.67;7.87;;;;;;;;;;5067187;28;20045;-61
2023/01/22 13:33:51;;;;;;;12.33;8.13;;;;;;;;;;5067737;28;20079;-61
2023/01/22 13:36:17;;;;;;;12.00;8.30;;;;;;;;;;5068257;28;20109;-60
2023/01/22 13:38:50;;;;;;;13.57;7.60;;;;;;;;;;5068220;28;20048;-61
2023/01/22 13:41:26;;;;;;;14.48;7.97;;;;;;;;;;5068105;28;20041;-60
2023/01/22 13:43:52;;;;;;;13.03;8.53;;;;;;;;;;5067890;28;20530;-60
2023/01/22 13:46:19;;;;;;;12.83;7.63;;;;;;;;;;5068901;28;20166;-60
2023/01/22 13:48:45;;;;;;;14.70;8.93;;;;;;;;;;5067186;28;20056;-60
2023/01/22 13:51:18;;;;;;;10.93;7.60;;;;;;;;;;5068361;28;20075;-60
2023/01/22 13:53:45;;;;;;;12.75;8.27;;;;;;;;;;5068102;28;20032;-61
2023/01/22 13:56:15;;;;;;;12.17;8.10;;;;;;;;;;5067150;28;20048;-60
2023/01/22 13:58:42;;;;;;;18.63;8.50;;;;;;;;;;5067571;28;20052;-61
2023/01/22 14:01:09;;;;;;;18.10;8.40;;;;;;;;;;5056767;28;20036;-61
2023/01/22 14:03:35;;;;;;;12.53;7.83;;;;;;;;;;5049263;28;20044;-61
2023/01/22 14:06:11;;;;;;;15.63;8.27;;;;;;;;;;5048152;28;20490;-61
2023/01/22 14:08:45;;;;;;;12.93;7.63;;;;;;;;;;5048218;28;20400;-61
2023/01/22 14:11:11;;;;;;;13.98;8.10;;;;;;;;;;5055726;28;20192;-60
2023/01/22 14:13:41;;;;;;;10.33;7.53;;;;;;;;;;5068464;28;20040;-60
2023/01/22 14:16:07;;;;;;;13.53;7.40;;;;;;;;;;5068241;28;20044;-61
2023/01/22 14:18:33;;;;;;;15.43;8.20;;;;;;;;;;5068465;28;20071;-61
2023/01/22 14:20:59;;;;;;;10.53;7.87;;;;;;;;;;5068285;28;20463;-60
2023/01/22 14:23:25;;;;;;;11.00;7.30;;;;;;;;;;5068311;28;20163;-61
2023/01/22 14:25:52;;;;;;;10.33;7.50;;;;;;;;;;5071850;28;20083;-60
2023/01/22 14:28:18;;;;;;;14.33;8.30;;;;;;;;;;5064498;28;20043;-61
2023/01/22 14:30:45;;;;;;;13.23;6.80;;;;;;;;;;5052504;28;21019;-60
2023/01/22 14:33:16;;;;;;;11.13;7.77;;;;;;;;;;5052062;28;20041;-61
2023/01/22 14:35:42;;;;;;;12.40;7.30;;;;;;;;;;5054137;28;20045;-60
2023/01/22 14:38:08;;;;;;;12.53;7.33;;;;;;;;;;5067959;28;20410;-60